Time;durP1;ratioP1;P1;durP2;ratioP2;P2;SDS_P1;SDS_P2;PMS_P1;PMS_P2;Temp;Humidity;BMP_temperature;BMP_pressure;BME280_temperature;BME280_humidity;BME280_pressure;Samples;Min_cycle;Max_cycle;Signal;HPM_P1;HPM_P2
2021/05/19 00:00:47;;;;;;;4.33;4.03;;;10.10;99.90;;;;;;5006837;28;20192;-77
2021/05/19 00:03:13;;;;;;;5.40;4.63;;;10.10;99.90;;;;;;5010195;28;20427;-76
2021/05/19 00:05:40;;;;;;;4.70;4.30;;;10.00;99.90;;;;;;5006762;28;20227;-76
2021/05/19 00:08:06;;;;;;;4.83;4.43;;;10.10;99.90;;;;;;5009125;28;20184;-75
2021/05/19 00:10:33;;;;;;;5.50;5.00;;;10.00;99.90;;;;;;5009755;28;20457;-77
2021/05/19 00:12:58;;;;;;;5.03;4.20;;;10.00;99.90;;;;;;5008872;28;20435;-74
2021/05/19 00:15:24;;;;;;;4.97;4.57;;;10.10;99.90;;;;;;4989562;28;20446;-77
2021/05/19 00:17:49;;;;;;;5.20;4.73;;;10.00;99.90;;;;;;5009838;28;20222;-79
2021/05/19 00:20:16;;;;;;;5.40;4.90;;;10.10;99.90;;;;;;5009362;28;20251;-77
2021/05/19 00:22:42;;;;;;;5.77;5.17;;;10.00;99.90;;;;;;5010889;28;20242;-77
2021/05/19 00:25:08;;;;;;;6.13;5.53;;;10.00;99.90;;;;;;5007345;28;20442;-77
2021/05/19 00:27:34;;;;;;;5.97;5.40;;;10.00;99.90;;;;;;5012841;28;20902;-77
2021/05/19 00:30:01;;;;;;;5.97;5.37;;;10.00;99.90;;;;;;5000923;28;20495;-75
2021/05/19 00:32:26;;;;;;;7.20;5.40;;;9.90;99.90;;;;;;5006550;28;20592;-77
2021/05/19 00:34:52;;;;;;;5.30;4.80;;;9.90;99.90;;;;;;5007409;28;20458;-77
2021/05/19 00:37:18;;;;;;;5.03;4.57;;;9.90;99.90;;;;;;5010189;28;20321;-77
2021/05/19 00:39:44;;;;;;;5.60;5.10;;;9.90;99.90;;;;;;5009681;28;20214;-77
2021/05/19 00:42:14;;;;;;;5.43;4.93;;;9.90;99.90;;;;;;5008280;28;20430;-77
2021/05/19 00:44:41;;;;;;;5.30;4.50;;;9.90;99.90;;;;;;5011185;28;20462;-78
2021/05/19 00:47:06;;;;;;;5.13;4.73;;;9.80;99.90;;;;;;5007977;28;20430;-78
2021/05/19 00:49:32;;;;;;;5.17;4.50;;;9.70;99.90;;;;;;4988956;28;21013;-77
2021/05/19 00:51:58;;;;;;;4.53;4.10;;;9.70;99.90;;;;;;5014710;28;20187;-77
2021/05/19 00:54:23;;;;;;;4.70;4.30;;;9.70;99.90;;;;;;5003177;28;20290;-77
2021/05/19 00:56:50;;;;;;;4.03;3.73;;;9.70;99.90;;;;;;4989462;28;20187;-77
2021/05/19 00:59:17;;;;;;;5.10;4.60;;;9.70;99.90;;;;;;5007331;28;20263;-75
2021/05/19 01:01:43;;;;;;;4.40;4.00;;;9.60;99.90;;;;;;5010930;28;20966;-77
2021/05/19 01:04:08;;;;;;;3.60;3.40;;;9.60;99.90;;;;;;5006318;28;20497;-78
2021/05/19 01:06:44;;;;;;;4.40;4.00;;;9.60;99.90;;;;;;4989302;28;20469;-77
2021/05/19 01:11:56;;;;;;;5.03;4.50;;;9.40;99.90;;;;;;5003821;28;20425;-77
2021/05/19 01:14:21;;;;;;;4.80;4.40;;;9.40;99.90;;;;;;5006575;28;20489;-77
2021/05/19 01:16:47;;;;;;;4.90;4.50;;;9.40;99.90;;;;;;4989228;28;20958;-78
2021/05/19 01:19:18;;;;;;;4.87;4.47;;;9.40;99.90;;;;;;4999880;28;20238;-78
2021/05/19 01:21:47;;;;;;;5.30;4.90;;;9.40;99.90;;;;;;5007489;28;20200;-78
2021/05/19 01:24:13;;;;;;;5.57;4.77;;;9.30;99.90;;;;;;4990034;28;20442;-77
2021/05/19 01:26:38;;;;;;;5.60;5.10;;;9.30;99.90;;;;;;5008693;28;20429;-76
2021/05/19 01:29:04;;;;;;;5.10;4.70;;;9.20;99.90;;;;;;5007125;28;20218;-77
2021/05/19 01:31:30;;;;;;;6.93;4.13;;;9.10;99.90;;;;;;5012536;28;20564;-77
2021/05/19 01:33:56;;;;;;;5.10;4.33;;;9.00;99.90;;;;;;5009560;28;20431;-78
2021/05/19 01:36:21;;;;;;;4.77;4.37;;;8.90;99.90;;;;;;5007319;28;20207;-79
2021/05/19 01:38:47;;;;;;;4.13;3.83;;;8.90;99.90;;;;;;4988366;28;20605;-76
2021/05/19 01:41:13;;;;;;;4.10;3.80;;;8.90;99.90;;;;;;5006113;28;20187;-78
2021/05/19 01:43:39;;;;;;;4.20;3.80;;;8.90;99.90;;;;;;5007682;28;20191;-77
2021/05/19 01:46:05;;;;;;;6.60;4.40;;;8.90;99.90;;;;;;5006896;28;20690;-78
2021/05/19 01:48:33;;;;;;;4.47;4.07;;;8.80;99.90;;;;;;5007615;28;20184;-78
2021/05/19 01:50:59;;;;;;;4.57;4.20;;;8.90;99.90;;;;;;5008025;28;20434;-78
2021/05/19 01:53:26;;;;;;;4.90;4.50;;;8.80;99.90;;;;;;4992303;28;20470;-78
2021/05/19 01:55:53;;;;;;;4.20;3.87;;;8.80;99.90;;;;;;5009819;28;20302;-77
2021/05/19 01:58:18;;;;;;;5.03;4.53;;;8.80;99.90;;;;;;5005745;28;20448;-76
2021/05/19 02:00:45;;;;;;;4.53;4.23;;;8.80;99.90;;;;;;4990447;28;20524;-77
2021/05/19 02:03:10;;;;;;;4.93;4.53;;;8.80;99.90;;;;;;5008559;28;20250;-77
2021/05/19 02:05:37;;;;;;;5.17;4.77;;;8.70;99.90;;;;;;5006268;28;20877;-77
2021/05/19 02:08:08;;;;;;;5.90;4.97;;;8.70;99.90;;;;;;5008150;28;20183;-75
2021/05/19 02:10:36;;;;;;;5.77;5.27;;;8.70;99.90;;;;;;5009630;28;20467;-77
2021/05/19 02:13:06;;;;;;;5.03;4.07;;;8.70;99.90;;;;;;5009831;28;20453;-74
2021/05/19 02:15:32;;;;;;;5.10;4.70;;;8.70;99.90;;;;;;5006108;28;20504;-76
2021/05/19 02:17:59;;;;;;;4.90;4.40;;;8.60;99.90;;;;;;5010478;28;20500;-76
2021/05/19 02:20:24;;;;;;;5.20;4.80;;;8.60;99.90;;;;;;4991919;28;20498;-77
2021/05/19 02:22:51;;;;;;;5.60;5.10;;;8.70;99.90;;;;;;5009605;28;20442;-76
2021/05/19 02:25:18;;;;;;;6.80;6.17;;;8.70;99.90;;;;;;4995837;28;20212;-77
2021/05/19 02:27:45;;;;;;;6.90;5.70;;;8.70;99.90;;;;;;5013297;28;20938;-78
2021/05/19 02:30:12;;;;;;;5.87;5.37;;;8.70;99.90;;;;;;5014267;28;20439;-77
2021/05/19 02:32:39;;;;;;;5.70;5.20;;;8.70;99.90;;;;;;5009943;28;20430;-78
2021/05/19 02:35:06;;;;;;;6.37;5.87;;;8.70;99.90;;;;;;5009033;28;20482;-75
2021/05/19 02:37:32;;;;;;;5.50;5.10;;;8.70;99.90;;;;;;5009133;28;20589;-77
2021/05/19 02:39:58;;;;;;;5.50;5.00;;;8.70;99.90;;;;;;5009138;28;20596;-77
2021/05/19 02:42:23;;;;;;;4.67;4.27;;;8.80;99.90;;;;;;5013525;28;20556;-77
2021/05/19 02:44:49;;;;;;;5.73;5.27;;;8.80;99.90;;;;;;5009612;28;20676;-77
2021/05/19 02:47:15;;;;;;;6.17;5.57;;;8.80;99.90;;;;;;4995425;28;20206;-76
2021/05/19 02:49:40;;;;;;;6.00;5.43;;;8.80;99.90;;;;;;4992232;28;20191;-76
2021/05/19 02:52:06;;;;;;;5.47;5.07;;;8.90;99.90;;;;;;5011196;28;20265;-77
2021/05/19 02:54:32;;;;;;;5.87;5.37;;;8.90;99.90;;;;;;5009864;28;20672;-77
2021/05/19 02:56:58;;;;;;;6.70;6.00;;;8.90;99.90;;;;;;5009270;28;20568;-77
2021/05/19 02:59:24;;;;;;;6.03;5.20;;;9.00;99.90;;;;;;5010491;28;20484;-75
2021/05/19 03:01:50;;;;;;;6.47;5.97;;;9.00;99.90;;;;;;5011749;28;21055;-78
2021/05/19 03:04:15;;;;;;;6.50;6.00;;;9.00;99.90;;;;;;5008800;28;20450;-75
2021/05/19 03:06:41;;;;;;;6.30;5.80;;;9.00;99.90;;;;;;5009764;28;20629;-76
2021/05/19 03:09:07;;;;;;;7.77;6.00;;;9.00;99.90;;;;;;4991004;28;20653;-76
2021/05/19 03:11:34;;;;;;;7.23;6.63;;;9.00;99.90;;;;;;4990479;28;20190;-77
2021/05/19 03:14:01;;;;;;;5.80;5.30;;;9.00;99.90;;;;;;5011576;28;20850;-77
2021/05/19 03:16:27;;;;;;;6.00;5.50;;;9.00;99.90;;;;;;5008832;28;20838;-77
2021/05/19 03:18:53;;;;;;;6.00;5.40;;;9.00;99.90;;;;;;5011563;28;20488;-77
2021/05/19 03:21:19;;;;;;;6.87;6.27;;;8.90;99.90;;;;;;5007270;28;20437;-75
2021/05/19 03:23:44;;;;;;;7.17;6.47;;;8.90;99.90;;;;;;5017261;28;20542;-77
2021/05/19 03:26:10;;;;;;;7.23;6.47;;;8.90;99.90;;;;;;4991143;28;20254;-77
2021/05/19 03:28:36;;;;;;;6.50;5.90;;;8.90;99.90;;;;;;5009686;28;20561;-77
2021/05/19 03:31:02;;;;;;;6.90;6.30;;;8.80;99.90;;;;;;5007582;28;20211;-78
2021/05/19 03:33:28;;;;;;;7.43;6.73;;;8.80;99.90;;;;;;4992163;28;20611;-78
2021/05/19 03:35:53;;;;;;;7.83;6.70;;;8.80;99.90;;;;;;4990759;28;20442;-77
2021/05/19 03:38:19;;;;;;;7.60;6.80;;;8.80;99.90;;;;;;5012703;28;20238;-77
2021/05/19 03:40:45;;;;;;;7.40;6.70;;;8.80;99.90;;;;;;4992107;28;20207;-78
2021/05/19 03:43:12;;;;;;;7.37;6.63;;;8.80;99.90;;;;;;5010913;28;20434;-77
2021/05/19 03:45:37;;;;;;;7.53;5.97;;;8.80;99.90;;;;;;5011795;28;20786;-78
2021/05/19 03:48:03;;;;;;;6.43;5.83;;;8.80;99.90;;;;;;4990862;28;20434;-77
2021/05/19 03:50:30;;;;;;;6.43;5.93;;;8.70;99.90;;;;;;5008945;28;20185;-78
2021/05/19 03:52:58;;;;;;;7.87;6.47;;;8.70;99.90;;;;;;5008193;28;20430;-77
2021/05/19 03:55:24;;;;;;;6.43;5.93;;;8.70;99.90;;;;;;5004039;28;20457;-77
2021/05/19 03:57:51;;;;;;;10.77;6.40;;;8.70;99.90;;;;;;5010467;28;20422;-77
2021/05/19 04:00:21;;;;;;;6.97;6.37;;;8.60;99.90;;;;;;4990606;28;20630;-77
2021/05/19 04:02:50;;;;;;;7.50;6.47;;;8.60;99.90;;;;;;5012869;28;20434;-77
2021/05/19 04:05:20;;;;;;;9.57;7.10;;;8.60;99.90;;;;;;5012062;28;20470;-77
2021/05/19 04:07:53;;;;;;;8.70;7.70;;;8.60;99.90;;;;;;5007273;28;20427;-77
2021/05/19 04:10:20;;;;;;;8.60;7.80;;;8.60;99.90;;;;;;5013321;28;20795;-77
2021/05/19 04:12:48;;;;;;;11.80;8.30;;;8.60;99.90;;;;;;5012605;28;20434;-77
2021/05/19 04:15:15;;;;;;;8.63;7.83;;;8.60;99.90;;;;;;5008474;28;20529;-78
2021/05/19 04:17:41;;;;;;;9.10;8.20;;;8.70;99.90;;;;;;5010385;28;20441;-77
2021/05/19 04:20:07;;;;;;;8.43;7.63;;;8.70;99.90;;;;;;5008320;28;20885;-75
2021/05/19 04:22:32;;;;;;;8.10;6.90;;;8.70;99.90;;;;;;5011485;28;20195;-77
2021/05/19 04:24:58;;;;;;;8.77;7.93;;;8.70;99.90;;;;;;4995480;28;20457;-79
2021/05/19 04:27:24;;;;;;;10.70;8.70;;;8.70;99.90;;;;;;5012302;28;20436;-78
2021/05/19 04:29:49;;;;;;;9.77;8.87;;;8.80;99.90;;;;;;5020831;28;20278;-79
2021/05/19 04:32:15;;;;;;;8.23;7.43;;;8.70;99.90;;;;;;5010625;28;20271;-80
2021/05/19 04:34:40;;;;;;;8.10;7.30;;;8.70;99.90;;;;;;5009494;28;20208;-79
2021/05/19 04:37:07;;;;;;;8.37;7.67;;;8.70;99.90;;;;;;5009619;28;20638;-78
2021/05/19 04:39:33;;;;;;;9.20;8.30;;;8.80;99.90;;;;;;5006993;28;20252;-78
2021/05/19 04:41:58;;;;;;;8.57;7.47;;;8.80;99.90;;;;;;5007052;28;20430;-80
2021/05/19 04:44:24;;;;;;;8.20;7.50;;;8.90;99.90;;;;;;5012842;28;20204;-78
2021/05/19 04:46:50;;;;;;;7.70;7.00;;;8.90;99.90;;;;;;4995359;28;20529;-80
2021/05/19 04:49:16;;;;;;;8.20;7.40;;;8.90;99.90;;;;;;4998962;28;20210;-80
2021/05/19 04:51:42;;;;;;;7.20;6.30;;;9.00;99.90;;;;;;5009785;28;20388;-78
2021/05/19 04:54:07;;;;;;;7.60;6.73;;;9.00;99.90;;;;;;5014499;28;20973;-78
2021/05/19 04:56:34;;;;;;;6.90;6.30;;;9.10;99.90;;;;;;5010681;28;20204;-79
2021/05/19 04:58:59;;;;;;;6.70;6.10;;;9.20;99.90;;;;;;5006263;28;20235;-78
2021/05/19 05:01:25;;;;;;;6.23;5.63;;;9.20;99.90;;;;;;4990642;28;20966;-80
2021/05/19 05:03:50;;;;;;;6.67;6.07;;;9.10;99.90;;;;;;5013497;28;20241;-78
2021/05/19 05:06:16;;;;;;;8.40;6.57;;;9.20;99.90;;;;;;5008350;28;20223;-79
2021/05/19 05:08:42;;;;;;;6.07;5.47;;;9.10;99.90;;;;;;5009055;28;20644;-78
2021/05/19 05:11:07;;;;;;;11.00;7.17;;;9.20;99.90;;;;;;5008046;28;20251;-80
2021/05/19 05:13:33;;;;;;;7.10;6.33;;;9.20;99.90;;;;;;5012821;28;20266;-79
2021/05/19 05:15:59;;;;;;;6.43;5.80;;;9.20;99.90;;;;;;5015016;28;20687;-78
2021/05/19 05:18:24;;;;;;;8.17;6.90;;;9.20;99.90;;;;;;5007529;28;20187;-79
2021/05/19 05:20:50;;;;;;;7.17;6.50;;;9.30;99.90;;;;;;5007279;28;20219;-78
2021/05/19 05:23:15;;;;;;;7.83;6.70;;;9.30;99.90;;;;;;5008612;28;20739;-78
2021/05/19 05:25:41;;;;;;;9.23;7.03;;;9.20;99.90;;;;;;5007622;28;20213;-77
2021/05/19 05:28:06;;;;;;;8.07;7.37;;;9.20;99.90;;;;;;5010296;28;20221;-79
2021/05/19 05:30:32;;;;;;;11.30;8.43;;;9.30;99.90;;;;;;5010025;28;20241;-77
2021/05/19 05:32:57;;;;;;;8.23;7.40;;;9.30;99.90;;;;;;5009591;28;20221;-78
2021/05/19 05:35:23;;;;;;;9.47;8.40;;;9.20;99.90;;;;;;4990174;28;20265;-78
2021/05/19 05:37:49;;;;;;;9.83;8.83;;;9.20;99.90;;;;;;5005725;28;20684;-78
2021/05/19 05:40:15;;;;;;;10.33;8.53;;;9.20;99.90;;;;;;4988206;28;20237;-78
2021/05/19 05:42:41;;;;;;;8.70;7.70;;;9.30;99.90;;;;;;4994223;28;20652;-78
2021/05/19 05:45:08;;;;;;;10.30;7.97;;;9.40;99.90;;;;;;4996100;28;20304;-78
2021/05/19 05:47:34;;;;;;;9.57;8.57;;;9.40;99.90;;;;;;4992440;28;20191;-79
2021/05/19 05:50:02;;;;;;;10.43;9.43;;;9.40;99.90;;;;;;5012764;28;20500;-78
2021/05/19 05:52:28;;;;;;;9.63;8.70;;;9.40;99.90;;;;;;5004770;28;20505;-78
2021/05/19 05:54:54;;;;;;;10.27;9.37;;;9.40;99.90;;;;;;5009023;28;20454;-78
2021/05/19 05:57:19;;;;;;;12.13;9.37;;;9.40;99.90;;;;;;4992572;28;20955;-77
2021/05/19 05:59:45;;;;;;;9.57;8.60;;;9.40;99.90;;;;;;5009906;28;20219;-77
2021/05/19 06:02:10;;;;;;;10.20;9.20;;;9.40;99.90;;;;;;5013986;28;20192;-78
2021/05/19 06:04:36;;;;;;;10.43;9.33;;;9.50;99.90;;;;;;4994610;28;20283;-80
2021/05/19 06:07:02;;;;;;;11.87;9.47;;;9.50;99.90;;;;;;5027132;28;20197;-80
2021/05/19 06:09:27;;;;;;;10.33;9.30;;;9.50;99.90;;;;;;4998866;28;20250;-79
2021/05/19 06:11:53;;;;;;;10.47;9.20;;;9.60;99.90;;;;;;5008081;28;20806;-80
2021/05/19 06:14:20;;;;;;;9.80;8.80;;;9.70;99.90;;;;;;5015677;28;20188;-80
2021/05/19 06:16:46;;;;;;;9.67;8.67;;;9.80;99.90;;;;;;5010993;28;20243;-80
2021/05/19 06:19:12;;;;;;;10.53;9.37;;;9.90;99.90;;;;;;5013821;28;21054;-81
2021/05/19 06:21:38;;;;;;;8.93;8.03;;;9.90;99.90;;;;;;5011771;28;20180;-79
2021/05/19 06:24:04;;;;;;;9.03;8.20;;;9.90;99.90;;;;;;5014843;28;20551;-79
2021/05/19 06:26:30;;;;;;;9.83;8.83;;;9.90;99.90;;;;;;4992902;28;20223;-80
2021/05/19 06:28:55;;;;;;;9.57;8.67;;;10.00;99.90;;;;;;4992798;28;20490;-78
2021/05/19 06:31:21;;;;;;;12.57;9.60;;;10.10;99.90;;;;;;4990854;28;20192;-78
2021/05/19 06:33:46;;;;;;;9.87;8.87;;;10.10;99.90;;;;;;5006938;28;20195;-78
2021/05/19 06:36:12;;;;;;;10.50;9.50;;;10.10;99.90;;;;;;5010558;28;20684;-80
2021/05/19 06:38:37;;;;;;;9.63;8.73;;;10.20;99.90;;;;;;4993118;28;20195;-78
2021/05/19 06:41:03;;;;;;;8.77;7.90;;;10.30;99.90;;;;;;4997457;28;20244;-80
2021/05/19 06:43:29;;;;;;;8.87;8.03;;;10.40;99.90;;;;;;5006915;28;20188;-80
2021/05/19 06:45:54;;;;;;;8.90;8.00;;;10.50;99.90;;;;;;5010323;28;20215;-79
2021/05/19 06:48:20;;;;;;;11.87;8.27;;;10.70;99.90;;;;;;5009992;28;20179;-80
2021/05/19 06:50:46;;;;;;;12.00;7.67;;;10.80;99.90;;;;;;5010295;28;20222;-78
2021/05/19 06:53:12;;;;;;;8.00;7.20;;;10.70;99.90;;;;;;4997751;28;20192;-77
2021/05/19 06:55:39;;;;;;;10.67;8.00;;;10.60;99.90;;;;;;5009665;28;20212;-79
2021/05/19 06:58:05;;;;;;;9.00;8.10;;;10.50;99.90;;;;;;4998403;28;20857;-81
2021/05/19 07:00:31;;;;;;;9.80;8.30;;;10.50;99.90;;;;;;4997048;28;20848;-79
2021/05/19 07:02:56;;;;;;;10.80;9.07;;;10.50;99.90;;;;;;5007168;28;20435;-80
2021/05/19 07:05:22;;;;;;;9.83;8.93;;;10.60;99.90;;;;;;4996863;28;20534;-80
2021/05/19 07:07:47;;;;;;;9.80;8.80;;;10.60;99.90;;;;;;5017418;28;21050;-81
2021/05/19 07:10:14;;;;;;;8.60;7.80;;;10.70;99.90;;;;;;4996729;28;20714;-80
2021/05/19 07:12:40;;;;;;;9.30;7.73;;;10.90;99.90;;;;;;5019548;28;20236;-81
2021/05/19 07:15:11;;;;;;;10.20;9.30;;;10.90;99.90;;;;;;5000471;28;20454;-81
2021/05/19 07:17:38;;;;;;;9.17;8.37;;;11.00;99.90;;;;;;5017007;28;20198;-79
2021/05/19 07:20:06;;;;;;;9.97;9.10;;;11.20;99.90;;;;;;5010759;28;20569;-79
2021/05/19 07:22:31;;;;;;;8.90;8.20;;;11.30;99.90;;;;;;5014005;28;20439;-80
2021/05/19 07:24:57;;;;;;;9.97;9.07;;;11.50;99.90;;;;;;5016029;28;20457;-78
2021/05/19 07:27:23;;;;;;;9.23;8.40;;;11.60;99.90;;;;;;5014057;28;20212;-79
2021/05/19 07:29:48;;;;;;;9.10;8.40;;;11.70;99.90;;;;;;5016592;28;20196;-79
2021/05/19 07:32:14;;;;;;;10.00;8.80;;;11.80;99.90;;;;;;5014137;28;20210;-80
2021/05/19 07:34:40;;;;;;;9.87;8.87;;;11.90;99.90;;;;;;4992845;28;20236;-80
2021/05/19 07:37:05;;;;;;;8.90;8.10;;;12.10;99.90;;;;;;5021621;28;20719;-78
2021/05/19 07:39:31;;;;;;;10.20;9.40;;;12.20;99.90;;;;;;5029223;28;20204;-79
2021/05/19 07:41:57;;;;;;;10.27;9.20;;;12.20;99.90;;;;;;5027375;28;20179;-80
2021/05/19 07:44:22;;;;;;;9.13;8.33;;;12.10;99.90;;;;;;5031512;28;20200;-80
2021/05/19 07:46:48;;;;;;;8.33;7.73;;;12.20;99.90;;;;;;5017060;28;20183;-80
2021/05/19 07:49:14;;;;;;;8.30;7.60;;;12.20;99.90;;;;;;5015023;28;20191;-80
2021/05/19 07:51:41;;;;;;;8.03;7.23;;;12.20;99.90;;;;;;5015552;28;20610;-80
2021/05/19 07:54:08;;;;;;;8.37;7.67;;;12.20;99.90;;;;;;4993065;28;20426;-81
2021/05/19 07:56:41;;;;;;;8.73;7.00;;;12.20;99.90;;;;;;4993156;28;20442;-80
2021/05/19 07:59:12;;;;;;;7.70;7.00;;;12.30;99.90;;;;;;5013100;28;20469;-81
2021/05/19 08:04:03;;;;;;;7.47;6.47;;;12.20;99.90;;;;;;5026766;28;20957;-77
2021/05/19 08:06:29;;;;;;;7.63;6.97;;;12.30;99.90;;;;;;5024942;28;20184;-80
2021/05/19 08:08:54;;;;;;;6.73;6.17;;;12.50;99.90;;;;;;5009386;28;20184;-78
2021/05/19 08:11:20;;;;;;;8.23;7.60;;;12.70;99.90;;;;;;5010158;28;20187;-79
2021/05/19 08:13:47;;;;;;;7.43;6.27;;;12.80;99.90;;;;;;5025591;28;20175;-79
2021/05/19 08:16:14;;;;;;;7.80;7.20;;;13.00;99.90;;;;;;5002384;28;20211;-78
2021/05/19 08:18:39;;;;;;;7.33;6.63;;;13.10;99.90;;;;;;5009734;28;20455;-79
2021/05/19 08:21:05;;;;;;;6.50;6.00;;;13.20;99.90;;;;;;5008379;28;20435;-79
2021/05/19 08:23:31;;;;;;;6.57;6.07;;;13.20;99.90;;;;;;4997100;28;20184;-79
2021/05/19 08:25:57;;;;;;;6.93;6.33;;;13.20;99.90;;;;;;4997002;28;20222;-78
2021/05/19 08:28:22;;;;;;;8.23;7.53;;;13.20;99.90;;;;;;4997170;28;20210;-79
2021/05/19 08:30:49;;;;;;;9.00;8.30;;;13.20;99.90;;;;;;5011863;28;20656;-80
2021/05/19 08:33:15;;;;;;;7.30;6.70;;;13.10;99.90;;;;;;5014088;28;20660;-80
2021/05/19 08:35:40;;;;;;;8.40;7.70;;;13.00;99.90;;;;;;4991449;28;20457;-79
2021/05/19 08:38:06;;;;;;;13.53;8.00;;;12.90;99.90;;;;;;5018418;28;20215;-79
2021/05/19 08:40:32;;;;;;;7.93;7.13;;;12.90;99.90;;;;;;4990553;28;20216;-79
2021/05/19 08:42:59;;;;;;;7.63;5.87;;;12.90;99.90;;;;;;4991028;28;20481;-79
2021/05/19 08:45:24;;;;;;;7.13;6.57;;;13.00;99.90;;;;;;4993674;28;20488;-79
2021/05/19 08:48:04;;;;;;;8.77;7.97;;;13.00;99.90;;;;;;5009432;28;20431;-79
2021/05/19 08:50:31;;;;;;;8.90;8.20;;;13.10;99.90;;;;;;5008155;28;20687;-79
2021/05/19 08:52:58;;;;;;;8.40;7.70;;;13.20;99.90;;;;;;5011163;28;20464;-79
2021/05/19 08:55:25;;;;;;;6.70;6.20;;;13.20;99.90;;;;;;5006104;28;20451;-80
2021/05/19 08:57:51;;;;;;;7.73;7.00;;;13.40;99.90;;;;;;5007679;28;20434;-77
2021/05/19 09:00:18;;;;;;;6.30;5.70;;;13.60;99.90;;;;;;5008475;28;20943;-79
2021/05/19 09:03:10;;;;;;;5.70;5.20;;;13.70;99.90;;;;;;5002042;28;20532;-79
2021/05/19 09:05:38;;;;;;;6.10;5.40;;;13.80;99.90;;;;;;5009216;28;20878;-78
2021/05/19 09:08:18;;;;;;;5.67;5.17;;;13.90;99.90;;;;;;5011309;28;20439;-79
2021/05/19 09:10:56;;;;;;;6.03;5.53;;;13.90;99.90;;;;;;5007753;28;20468;-77
2021/05/19 09:13:34;;;;;;;6.77;6.17;;;13.80;99.90;;;;;;4993564;28;20502;-78
2021/05/19 09:16:02;;;;;;;6.20;5.70;;;13.80;99.90;;;;;;4982799;28;20459;-79
2021/05/19 09:19:00;;;;;;;6.70;5.37;;;13.80;99.90;;;;;;5008866;28;20549;-79
2021/05/19 09:21:36;;;;;;;5.40;4.90;;;13.80;99.90;;;;;;4949268;28;20500;-79
2021/05/19 09:24:04;;;;;;;7.27;6.53;;;14.00;99.90;;;;;;4964001;28;20937;-80
2021/05/19 09:26:29;;;;;;;6.27;5.70;;;14.10;99.90;;;;;;4968777;28;20902;-79
2021/05/19 09:29:19;;;;;;;5.90;5.30;;;14.10;99.90;;;;;;4962217;28;20518;-78
2021/05/19 09:31:53;;;;;;;8.37;7.43;;;14.10;99.90;;;;;;4950493;28;20200;-79
2021/05/19 09:34:27;;;;;;;6.60;6.10;;;14.20;99.90;;;;;;4965861;28;20442;-80
2021/05/19 09:36:53;;;;;;;7.87;7.17;;;14.20;99.90;;;;;;4966413;28;20421;-78
2021/05/19 09:39:19;;;;;;;7.57;6.97;;;14.20;99.90;;;;;;4964486;28;20467;-76
2021/05/19 09:41:45;;;;;;;8.10;7.30;;;14.10;99.90;;;;;;4964230;28;20197;-77
2021/05/19 09:44:12;;;;;;;7.17;6.53;;;13.80;99.90;;;;;;4961901;28;20189;-77
2021/05/19 09:46:47;;;;;;;8.80;8.10;;;13.80;99.90;;;;;;4964707;28;20185;-79
2021/05/19 09:49:21;;;;;;;7.87;7.10;;;13.70;99.90;;;;;;4965737;28;20511;-80
2021/05/19 09:51:48;;;;;;;7.53;6.83;;;13.60;99.90;;;;;;4949619;28;20445;-78
2021/05/19 09:54:46;;;;;;;8.80;7.90;;;13.70;99.90;;;;;;4965610;28;20479;-76
2021/05/19 09:57:13;;;;;;;7.40;6.70;;;14.10;99.90;;;;;;4920681;29;20429;-78
2021/05/19 09:59:42;;;;;;;6.90;6.27;;;14.20;99.90;;;;;;4945805;28;20479;-78
2021/05/19 10:02:09;;;;;;;6.20;5.70;;;14.20;99.90;;;;;;4947848;28;20898;-78
2021/05/19 10:04:41;;;;;;;8.07;7.37;;;14.20;99.90;;;;;;4945757;28;20472;-77
2021/05/19 10:07:18;;;;;;;6.37;5.87;;;14.30;99.90;;;;;;4940336;28;21016;-77
2021/05/19 10:09:43;;;;;;;6.53;5.93;;;14.20;99.90;;;;;;4945405;28;20454;-78
2021/05/19 10:12:12;;;;;;;7.83;5.43;;;14.10;99.90;;;;;;4945618;28;20441;-77
2021/05/19 10:14:37;;;;;;;3.60;3.33;;;14.10;99.90;;;;;;4946098;28;20217;-78
2021/05/19 10:17:07;;;;;;;3.07;2.77;;;14.20;99.90;;;;;;4943919;28;20437;-77
2021/05/19 10:19:57;;;;;;;4.47;2.97;;;14.50;99.90;;;;;;4945992;28;20232;-77
2021/05/19 10:22:24;;;;;;;2.90;2.17;;;14.70;99.90;;;;;;4916823;29;20525;-78
2021/05/19 10:25:03;;;;;;;2.53;1.73;;;14.90;99.90;;;;;;4946316;28;21033;-77
2021/05/19 10:27:47;;;;;;;1.93;1.83;;;14.80;99.90;;;;;;4941746;28;20421;-77
2021/05/19 10:30:36;;;;;;;1.87;1.70;;;14.60;99.90;;;;;;4949024;28;20540;-79
2021/05/19 10:33:02;;;;;;;1.80;1.70;;;14.60;99.90;;;;;;4987148;28;20426;-77
2021/05/19 10:35:37;;;;;;;2.07;1.50;;;14.90;99.90;;;;;;5010261;28;20438;-79
2021/05/19 10:38:24;;;;;;;2.60;1.93;;;15.20;99.90;;;;;;5009076;28;20793;-79
2021/05/19 10:40:58;;;;;;;1.87;1.50;;;15.20;99.90;;;;;;5015357;28;20556;-79
2021/05/19 10:43:46;;;;;;;1.87;1.77;;;14.80;99.90;;;;;;5016379;28;20462;-79
2021/05/19 10:46:13;;;;;;;2.37;1.77;;;14.30;99.90;;;;;;5010355;28;20447;-79
2021/05/19 10:48:40;;;;;;;2.23;1.60;;;14.00;99.90;;;;;;5004325;28;20434;-78
2021/05/19 10:51:53;;;;;;;1.63;1.53;;;13.90;99.90;;;;;;4995809;28;20796;-80
2021/05/19 10:57:33;;;;;;;1.77;1.67;;;14.00;99.90;;;;;;4972727;28;20589;-78
2021/05/19 11:00:22;;;;;;;2.43;2.00;;;14.30;99.90;;;;;;4967186;28;20468;-79
2021/05/19 11:02:54;;;;;;;1.57;1.47;;;14.50;99.90;;;;;;4965075;28;20516;-80
2021/05/19 11:05:37;;;;;;;1.80;1.57;;;14.70;99.90;;;;;;4969332;28;21033;-78
2021/05/19 11:08:12;;;;;;;4.03;1.67;;;14.80;99.90;;;;;;4965903;28;20425;-77
2021/05/19 11:10:40;;;;;;;9.63;2.17;;;14.90;99.90;;;;;;4970254;28;20451;-77
2021/05/19 11:13:07;;;;;;;1.57;1.47;;;15.00;99.90;;;;;;4976693;28;20810;-77
2021/05/19 11:15:43;;;;;;;2.07;1.63;;;15.10;99.90;;;;;;4968337;28;21048;-78
2021/05/19 11:18:22;;;;;;;2.00;1.70;;;15.20;99.90;;;;;;4950277;28;20459;-77
2021/05/19 11:20:48;;;;;;;3.80;1.60;;;15.40;99.90;;;;;;4966961;28;20476;-78
2021/05/19 11:23:15;;;;;;;2.60;2.10;;;15.50;99.90;;;;;;4967986;28;20436;-79
2021/05/19 11:25:41;;;;;;;3.23;1.90;;;15.70;99.90;;;;;;4967728;28;20547;-78
2021/05/19 11:28:07;;;;;;;2.10;1.40;;;15.90;99.90;;;;;;4962822;28;20426;-78
2021/05/19 11:30:33;;;;;;;1.87;1.40;;;16.00;99.90;;;;;;5002461;28;20242;-78
2021/05/19 11:33:07;;;;;;;1.50;1.40;;;16.10;99.90;;;;;;4990985;28;20825;-78
2021/05/19 11:35:33;;;;;;;2.13;1.50;;;16.40;99.90;;;;;;5009008;28;20614;-76
2021/05/19 11:38:05;;;;;;;2.03;1.50;;;16.30;99.90;;;;;;5008565;28;20449;-75
2021/05/19 11:40:40;;;;;;;1.40;1.20;;;16.40;99.90;;;;;;5012500;28;20454;-78
2021/05/19 11:43:06;;;;;;;2.60;1.33;;;16.50;99.90;;;;;;5007358;28;20504;-78
2021/05/19 11:45:32;;;;;;;1.47;1.20;;;16.50;99.90;;;;;;5009245;28;20434;-78
2021/05/19 11:47:58;;;;;;;1.43;1.33;;;16.50;99.90;;;;;;4994163;28;20469;-77
2021/05/19 11:50:27;;;;;;;6.70;1.40;;;16.50;99.90;;;;;;4986525;28;20446;-79
2021/05/19 11:53:10;;;;;;;1.83;1.10;;;16.50;99.90;;;;;;5008061;28;20419;-76
2021/05/19 11:55:49;;;;;;;3.50;1.40;;;16.70;99.90;;;;;;5008819;28;20977;-77
2021/05/19 11:58:15;;;;;;;3.23;1.30;;;16.60;99.90;;;;;;5008420;28;20914;-76
2021/05/19 12:00:59;;;;;;;1.40;1.27;;;16.40;99.90;;;;;;5008146;28;20465;-77
2021/05/19 12:03:30;;;;;;;1.57;1.47;;;16.70;99.90;;;;;;4997472;28;20714;-75
2021/05/19 12:06:04;;;;;;;2.97;1.30;;;17.10;99.90;;;;;;5007386;28;20549;-76
2021/05/19 12:08:38;;;;;;;5.47;1.50;;;17.80;99.90;;;;;;5009258;28;20407;-76
2021/05/19 12:11:17;;;;;;;2.60;1.30;;;18.80;99.90;;;;;;4991453;28;20436;-77
2021/05/19 12:13:55;;;;;;;1.27;1.10;;;19.20;99.90;;;;;;5004858;28;20434;-77
2021/05/19 12:16:47;;;;;;;1.43;1.33;;;19.60;99.90;;;;;;5008600;28;20445;-77
2021/05/19 12:19:18;;;;;;;1.10;1.00;;;19.50;98.90;;;;;;4988257;28;20508;-75
2021/05/19 12:21:51;;;;;;;3.60;1.23;;;19.20;96.40;;;;;;5007018;28;20440;-75
2021/05/19 12:24:20;;;;;;;1.90;1.27;;;19.20;94.80;;;;;;5006524;28;20427;-75
2021/05/19 12:26:47;;;;;;;3.40;1.17;;;19.20;94.30;;;;;;5006411;28;20446;-75
2021/05/19 12:29:32;;;;;;;1.40;1.10;;;19.30;94.30;;;;;;5007180;28;20445;-75
2021/05/19 12:32:17;;;;;;;4.30;1.63;;;20.20;94.20;;;;;;4990268;28;20534;-79
2021/05/19 12:34:45;;;;;;;1.70;1.13;;;20.70;92.20;;;;;;5018320;28;20459;-79
2021/05/19 12:37:11;;;;;;;3.73;2.20;;;20.50;92.20;;;;;;5018490;28;20430;-77
2021/05/19 12:39:41;;;;;;;1.97;1.23;;;20.50;92.00;;;;;;5015673;28;20528;-77
2021/05/19 12:42:20;;;;;;;1.97;1.40;;;20.60;92.10;;;;;;5009447;28;20430;-77
2021/05/19 12:44:58;;;;;;;6.07;1.23;;;19.90;91.80;;;;;;5001782;28;20450;-75
2021/05/19 12:47:25;;;;;;;2.53;1.20;;;18.70;91.90;;;;;;5005692;28;20430;-75
2021/05/19 12:49:59;;;;;;;2.60;1.43;;;18.40;94.10;;;;;;5004234;28;20431;-75
2021/05/19 12:52:29;;;;;;;2.20;1.60;;;18.60;94.10;;;;;;5000529;28;20465;-77
2021/05/19 12:54:55;;;;;;;2.37;1.20;;;18.70;93.70;;;;;;5002798;28;20970;-77
2021/05/19 12:57:25;;;;;;;1.77;1.60;;;19.20;93.90;;;;;;5006789;28;20429;-77
2021/05/19 12:59:54;;;;;;;1.87;1.10;;;18.90;92.80;;;;;;5014005;28;20227;-75
2021/05/19 13:02:40;;;;;;;1.53;1.43;;;18.70;93.20;;;;;;5009601;28;20429;-75
2021/05/19 13:05:19;;;;;;;1.97;1.60;;;18.10;94.70;;;;;;5009399;28;20914;-76